createdAt,value
2022-11-20T00:02:33.554Z,29.83
2022-11-20T00:07:37.513Z,30.75
2022-11-20T00:12:42.481Z,41.50
2022-11-20T00:17:45.871Z,40.33
2022-11-20T00:22:49.365Z,32.70
2022-11-20T00:27:54.250Z,29.50
2022-11-20T00:32:59.240Z,35.15
2022-11-20T00:38:02.612Z,29.75
2022-11-20T00:43:07.331Z,27.23
2022-11-20T00:48:10.974Z,27.40
2022-11-20T00:53:14.311Z,26.10
2022-11-20T00:58:19.359Z,25.23
2022-11-20T01:03:27.013Z,26.67
2022-11-20T01:08:32.971Z,32.05
2022-11-20T01:13:41.974Z,29.42
2022-11-20T01:18:47.427Z,30.00
2022-11-20T01:23:52.325Z,35.83
2022-11-20T01:28:58.051Z,51.28
2022-11-20T01:34:03.207Z,46.95
2022-11-20T01:39:08.526Z,37.17
2022-11-20T01:44:16.836Z,28.50
2022-11-20T01:49:24.536Z,31.48
2022-11-20T01:54:33.469Z,29.63
2022-11-20T01:59:42.915Z,28.15
2022-11-20T02:04:47.055Z,30.60
2022-11-20T02:09:53.768Z,26.52
2022-11-20T02:15:03.065Z,21.13
2022-11-20T02:20:08.051Z,22.98
2022-11-20T02:25:13.425Z,18.67
2022-11-20T02:30:16.962Z,18.80
2022-11-20T02:35:44.029Z,21.98
2022-11-20T02:40:54.092Z,19.17
2022-11-20T02:45:58.828Z,20.45
2022-11-20T02:51:02.741Z,20.17
2022-11-20T02:56:08.818Z,22.20
2022-11-20T03:01:12.607Z,20.55
2022-11-20T03:06:16.290Z,20.52
2022-11-20T03:11:21.354Z,21.02
2022-11-20T03:16:25.672Z,19.95
2022-11-20T03:21:29.501Z,19.88
2022-11-20T03:26:34.280Z,19.13
2022-11-20T03:31:41.257Z,19.70
2022-11-20T03:36:45.150Z,19.20
2022-11-20T03:41:49.928Z,21.45
2022-11-20T03:46:53.305Z,20.25
2022-11-20T03:51:56.925Z,18.90
2022-11-20T03:57:01.608Z,20.25
2022-11-20T04:02:05.011Z,18.92
2022-11-20T04:07:08.626Z,19.05
2022-11-20T04:12:13.325Z,22.33
2022-11-20T04:17:16.755Z,21.75
2022-11-20T04:22:20.146Z,24.10
2022-11-20T04:27:25.116Z,24.40
2022-11-20T04:32:28.505Z,24.45
2022-11-20T04:37:31.885Z,23.92
2022-11-20T04:42:36.543Z,24.48
2022-11-20T04:47:39.856Z,24.70
2022-11-20T04:52:43.272Z,25.20
2022-11-20T04:57:51.454Z,24.48
2022-11-20T05:02:54.856Z,24.20
2022-11-20T05:07:59.051Z,24.70
2022-11-20T05:13:04.183Z,24.00
2022-11-20T05:18:08.345Z,25.73
2022-11-20T05:23:11.767Z,25.75
2022-11-20T05:28:16.775Z,26.55
2022-11-20T05:33:20.427Z,29.10
2022-11-20T05:38:23.821Z,28.45
2022-11-20T05:43:28.573Z,28.55
2022-11-20T05:48:32.399Z,29.42
2022-11-20T05:53:36.598Z,26.45
2022-11-20T05:58:42.404Z,28.85
2022-11-20T06:03:48.741Z,27.48
2022-11-20T06:08:52.494Z,29.65
2022-11-20T06:13:57.590Z,29.42
2022-11-20T06:19:01.002Z,28.58
2022-11-20T06:24:04.627Z,29.13
2022-11-20T06:29:09.707Z,29.52
2022-11-20T06:34:13.425Z,26.10
2022-11-20T06:39:16.803Z,27.60
2022-11-20T06:44:21.505Z,28.83
2022-11-20T06:49:26.138Z,27.33
2022-11-20T06:54:29.545Z,28.50
2022-11-20T06:59:34.541Z,30.65
2022-11-20T07:04:38.175Z,29.80
2022-11-20T07:09:41.548Z,30.90
2022-11-20T07:14:46.257Z,36.92
2022-11-20T07:19:49.935Z,34.55
2022-11-20T07:24:53.248Z,31.60
2022-11-20T07:29:58.067Z,30.60
2022-11-20T07:35:01.654Z,31.13
2022-11-20T07:40:05.835Z,29.60
2022-11-20T07:45:11.606Z,29.77
2022-11-20T07:50:15.600Z,28.88
2022-11-20T07:55:19.412Z,28.52
2022-11-20T08:00:24.564Z,28.95
2022-11-20T08:05:27.932Z,25.70
2022-11-20T08:10:31.369Z,24.70
2022-11-20T08:15:37.382Z,21.60
2022-11-20T08:20:40.797Z,22.67
2022-11-20T08:25:44.162Z,24.55
2022-11-20T08:30:48.924Z,20.80
2022-11-20T08:35:52.261Z,21.75
2022-11-20T08:41:16.625Z,20.83
2022-11-20T08:46:21.646Z,20.70
2022-11-20T08:51:25.015Z,20.45
2022-11-20T08:56:28.759Z,17.73
2022-11-20T09:01:33.548Z,18.05
2022-11-20T09:06:36.976Z,17.60
2022-11-20T09:11:40.383Z,18.48
2022-11-20T09:16:47.153Z,18.30
2022-11-20T09:21:50.541Z,17.85
2022-11-20T09:26:53.998Z,19.85
2022-11-20T09:31:58.899Z,18.00
2022-11-20T09:37:06.160Z,17.90
2022-11-20T09:42:24.984Z,16.75
2022-11-20T09:47:44.590Z,17.02
2022-11-20T09:52:54.796Z,17.80
2022-11-20T09:57:59.942Z,18.35
2022-11-20T10:03:14.053Z,19.00
2022-11-20T10:08:23.632Z,17.45
2022-11-20T10:13:38.414Z,15.60
2022-11-20T10:18:58.303Z,16.63
2022-11-20T10:24:18.933Z,16.77
2022-11-20T10:29:31.505Z,16.38
2022-11-20T10:34:46.190Z,16.13
2022-11-20T10:39:53.613Z,15.30
2022-11-20T10:45:06.956Z,15.98
2022-11-20T10:50:22.152Z,18.95
2022-11-20T10:55:34.935Z,17.17
2022-11-20T11:00:38.397Z,15.52
2022-11-20T11:05:50.959Z,14.27
2022-11-20T11:10:58.242Z,17.63
2022-11-20T11:16:02.309Z,16.20
2022-11-20T11:21:08.023Z,14.95
2022-11-20T11:26:22.159Z,14.52
2022-11-20T11:31:27.079Z,13.55
2022-11-20T11:36:32.349Z,13.38
2022-11-20T11:41:36.943Z,14.07
2022-11-20T11:46:44.219Z,14.15
2022-11-20T11:52:07.399Z,15.00
2022-11-20T11:57:18.836Z,15.18
2022-11-20T12:02:33.386Z,15.30
2022-11-20T12:07:47.277Z,14.63
2022-11-20T12:12:57.202Z,25.23
2022-11-20T12:18:02.785Z,14.25
2022-11-20T12:23:17.214Z,13.98
2022-11-20T12:28:44.678Z,12.15
2022-11-20T12:33:57.916Z,12.23
2022-11-20T12:39:19.969Z,12.20
2022-11-20T12:45:03.989Z,11.43
2022-11-20T12:50:15.346Z,10.77
2022-11-20T12:55:27.610Z,11.65
2022-11-20T13:00:34.384Z,12.57
2022-11-20T13:05:52.677Z,10.45
2022-11-20T13:11:03.493Z,11.05
2022-11-20T13:16:13.412Z,9.30
2022-11-20T13:21:20.016Z,10.15
2022-11-20T13:26:26.222Z,9.93
2022-11-20T13:31:34.843Z,10.23
2022-11-20T13:36:38.223Z,10.48
2022-11-20T13:41:43.682Z,11.45
2022-11-20T13:46:48.748Z,11.65
2022-11-20T13:51:56.187Z,10.60
2022-11-20T13:57:14.809Z,10.68
2022-11-20T14:02:20.753Z,10.65
2022-11-20T14:07:29.352Z,10.77
2022-11-20T14:12:37.810Z,11.70
2022-11-20T14:17:41.213Z,11.35
2022-11-20T14:22:51.239Z,12.70
2022-11-20T14:27:57.996Z,10.77
2022-11-20T14:33:05.347Z,12.20
2022-11-20T14:38:14.029Z,11.15
2022-11-20T14:43:25.352Z,12.65
2022-11-20T14:48:33.873Z,15.18
2022-11-20T14:53:37.323Z,20.83
2022-11-20T14:58:42.075Z,19.67
2022-11-20T15:03:45.573Z,16.25
2022-11-20T15:08:53.345Z,15.43
2022-11-20T15:13:58.963Z,13.20
2022-11-20T15:19:18.865Z,14.93
2022-11-20T15:24:22.552Z,15.00
2022-11-20T15:29:28.236Z,16.77
2022-11-20T15:34:31.589Z,17.08
2022-11-20T15:39:35.249Z,17.10
2022-11-20T15:44:39.987Z,17.98
2022-11-20T15:49:43.434Z,18.45
2022-11-20T15:54:46.853Z,20.98
2022-11-20T15:59:51.624Z,23.63
2022-11-20T16:04:55.003Z,22.95
2022-11-20T16:09:58.470Z,21.40
2022-11-20T16:15:29.056Z,21.38
2022-11-20T16:20:32.441Z,19.27
2022-11-20T16:25:36.326Z,21.67
2022-11-20T16:30:41.752Z,23.55
2022-11-20T16:35:45.609Z,24.80
2022-11-20T16:40:49.026Z,26.52
2022-11-20T16:45:54.286Z,25.27
2022-11-20T16:50:57.689Z,25.38
2022-11-20T16:56:10.540Z,26.58
2022-11-20T17:01:17.802Z,26.33
2022-11-20T17:06:22.782Z,27.30
2022-11-20T17:11:30.093Z,22.75
2022-11-20T17:16:35.699Z,24.05
2022-11-20T17:21:39.760Z,26.85
2022-11-20T17:26:49.053Z,26.27
2022-11-20T17:31:55.642Z,25.23
2022-11-20T17:36:59.305Z,26.42
2022-11-20T17:42:20.461Z,27.17
2022-11-20T17:47:25.652Z,28.85
2022-11-20T17:52:29.040Z,26.38
2022-11-20T17:57:49.958Z,25.35
2022-11-20T18:02:55.309Z,23.85
2022-11-20T18:07:58.647Z,23.42
2022-11-20T18:13:02.477Z,21.85
2022-11-20T18:18:07.504Z,22.40
2022-11-20T18:23:10.868Z,24.65
2022-11-20T18:28:14.503Z,30.95
2022-11-20T18:33:23.037Z,29.70
2022-11-20T18:38:28.987Z,47.80
2022-11-20T18:43:50.003Z,44.10
2022-11-20T18:48:54.800Z,35.55
2022-11-20T18:53:59.427Z,29.15
2022-11-20T18:59:03.998Z,36.38
2022-11-20T19:04:10.734Z,30.13
2022-11-20T19:09:14.894Z,29.50
2022-11-20T19:14:18.365Z,28.27
2022-11-20T19:19:23.443Z,33.25
2022-11-20T19:24:30.003Z,31.77
2022-11-20T19:29:33.450Z,34.30
2022-11-20T19:34:38.805Z,28.75
2022-11-20T19:39:42.664Z,31.33
2022-11-20T19:44:46.206Z,33.15
2022-11-20T19:49:51.301Z,31.38
2022-11-20T19:54:54.790Z,36.17
2022-11-20T19:59:58.422Z,33.97
2022-11-20T20:05:03.233Z,32.00
2022-11-20T20:10:08.029Z,29.13
2022-11-20T20:15:11.552Z,31.95
2022-11-20T20:20:17.276Z,30.98
2022-11-20T20:25:20.666Z,29.58
2022-11-20T20:30:24.086Z,29.65
2022-11-20T20:35:29.414Z,31.33
2022-11-20T20:40:32.886Z,31.55
2022-11-20T20:45:36.758Z,29.42
2022-11-20T20:50:41.742Z,32.05
2022-11-20T20:55:55.099Z,30.10
2022-11-20T21:06:08.062Z,26.90
2022-11-20T21:11:13.507Z,28.35
2022-11-20T21:16:19.089Z,31.38
2022-11-20T21:21:44.307Z,32.00
2022-11-20T21:26:49.557Z,33.75
2022-11-20T21:31:54.105Z,32.47
2022-11-20T21:36:59.067Z,36.50
2022-11-20T21:42:02.676Z,36.28
2022-11-20T21:47:06.422Z,32.50
2022-11-20T21:52:11.212Z,33.28
2022-11-20T21:57:14.629Z,33.63
2022-11-20T22:02:18.040Z,40.30
2022-11-20T22:07:23.958Z,41.58
2022-11-20T22:12:27.738Z,44.25
2022-11-20T22:17:48.753Z,43.20
2022-11-20T22:22:53.479Z,41.70
2022-11-20T22:27:56.948Z,42.60
2022-11-20T22:33:00.485Z,41.05
2022-11-20T22:38:05.650Z,40.63
2022-11-20T22:43:09.057Z,41.35
2022-11-20T22:48:12.535Z,39.53
2022-11-20T22:53:17.499Z,41.10
2022-11-20T22:58:20.979Z,41.63
2022-11-20T23:03:24.500Z,41.13
2022-11-20T23:08:29.773Z,40.85
2022-11-20T23:13:33.944Z,41.53
2022-11-20T23:18:38.194Z,39.80
2022-11-20T23:23:44.034Z,39.50
2022-11-20T23:28:47.689Z,39.70
2022-11-20T23:33:51.781Z,40.85
2022-11-20T23:38:56.849Z,42.45
2022-11-20T23:44:00.492Z,46.88
2022-11-20T23:49:03.886Z,46.70
2022-11-20T23:54:08.731Z,50.83
2022-11-20T23:59:12.196Z,51.08
